Terminal Aerodrome Forecast
Issued by NWS

Home | Current Version | Previous Version | Text Only | Print | Product List | Glossary On
Versions: 1 2 3 4 5 6 7 8 9 10 11 12 13
000
FTUS45 KTFX 302204 AAA
TAFHLN
TAF AMD
KHLN 302204Z 3022/3118 29015G25KT P6SM FEW130
     FM310200 30008KT P6SM SCT150
     FM311500 28010KT P6SM FEW150=

USA.gov is the U.S. government's official web portal to all federal, state and local government web resources and services.